Time;durP1;ratioP1;P1;durP2;ratioP2;P2;SDS_P1;SDS_P2;PMS_P1;PMS_P2;Temp;Humidity;BMP_temperature;BMP_pressure;BME280_temperature;BME280_humidity;BME280_pressure;Samples;Min_cycle;Max_cycle;Signal;HPM_P1;HPM_P2
2023/06/23 00:00:13;;;;;;;11.98;9.20;;;17.30;99.90;;;;;;4955020;28;20497;-50
2023/06/23 00:02:40;;;;;;;10.60;8.82;;;17.20;99.90;;;;;;4954531;28;20478;-47
2023/06/23 00:05:07;;;;;;;13.05;9.27;;;17.20;99.90;;;;;;4954809;28;20182;-49
2023/06/23 00:07:34;;;;;;;12.07;9.60;;;17.30;99.90;;;;;;4954375;28;20050;-48
2023/06/23 00:10:00;;;;;;;10.60;9.43;;;17.20;99.90;;;;;;4954264;28;20132;-47
2023/06/23 00:12:26;;;;;;;11.13;9.32;;;17.20;99.90;;;;;;4954509;28;20066;-49
2023/06/23 00:14:52;;;;;;;10.93;9.10;;;17.30;99.90;;;;;;4936891;28;20047;-46
2023/06/23 00:17:17;;;;;;;10.95;8.93;;;17.30;99.90;;;;;;4954532;28;20414;-48
2023/06/23 00:19:43;;;;;;;10.95;9.38;;;17.20;99.90;;;;;;4937306;28;20482;-48
2023/06/23 00:22:08;;;;;;;11.80;9.73;;;17.20;99.90;;;;;;4954275;28;20106;-47
2023/06/23 00:24:34;;;;;;;12.50;9.95;;;17.20;99.90;;;;;;4954234;28;20039;-50
2023/06/23 00:27:01;;;;;;;12.85;10.10;;;17.10;99.90;;;;;;4968513;28;20034;-50
2023/06/23 00:29:26;;;;;;;12.30;9.75;;;17.20;99.90;;;;;;4973383;28;20042;-49
2023/06/23 00:31:52;;;;;;;11.80;9.95;;;17.10;99.90;;;;;;4959428;28;20031;-50
2023/06/23 00:34:17;;;;;;;12.88;10.45;;;17.10;99.90;;;;;;4963465;28;20050;-50
2023/06/23 00:36:43;;;;;;;12.57;9.77;;;17.10;99.90;;;;;;4973165;28;20119;-50
2023/06/23 00:39:09;;;;;;;13.25;10.80;;;17.10;99.90;;;;;;4966200;28;20038;-47
2023/06/23 00:41:35;;;;;;;13.95;11.27;;;17.20;99.90;;;;;;4965399;28;20094;-51
2023/06/23 00:44:01;;;;;;;15.00;11.23;;;17.00;99.90;;;;;;4953715;28;20285;-50
2023/06/23 00:46:28;;;;;;;13.75;11.45;;;17.10;99.90;;;;;;4954023;28;20037;-48
2023/06/23 00:48:54;;;;;;;15.55;12.10;;;17.10;99.90;;;;;;4936429;28;20078;-49
2023/06/23 00:51:22;;;;;;;16.35;12.73;;;17.00;99.90;;;;;;4953812;28;20498;-48
2023/06/23 00:53:48;;;;;;;15.18;12.07;;;17.10;99.90;;;;;;4953583;28;20055;-48
2023/06/23 00:56:21;;;;;;;14.50;12.70;;;17.00;99.90;;;;;;4953579;28;20070;-48
2023/06/23 00:58:47;;;;;;;15.00;12.95;;;17.10;99.90;;;;;;4953359;28;20071;-51
2023/06/23 01:01:13;;;;;;;16.15;13.15;;;17.00;99.90;;;;;;4953685;28;20074;-49
2023/06/23 01:03:40;;;;;;;15.02;13.10;;;17.10;99.90;;;;;;4953386;28;20066;-51
2023/06/23 01:06:28;;;;;;;15.60;13.77;;;17.00;99.90;;;;;;4936308;28;20059;-48
2023/06/23 01:09:00;;;;;;;15.30;13.38;;;17.00;99.90;;;;;;4952900;28;20043;-49
2023/06/23 01:11:35;;;;;;;16.75;14.07;;;16.90;99.90;;;;;;4953728;28;20407;-49
2023/06/23 01:14:28;;;;;;;15.40;13.80;;;17.00;99.90;;;;;;4953879;28;20047;-47
2023/06/23 01:17:05;;;;;;;18.48;14.73;;;16.90;99.90;;;;;;4953199;28;20047;-52
2023/06/23 01:20:20;;;;;;;17.88;10.02;;;16.90;99.90;;;;;;4953316;28;20047;-50
2023/06/23 01:23:24;;;;;;;20.95;14.95;;;17.00;99.90;;;;;;4952965;28;20051;-48
2023/06/23 01:26:12;;;;;;;22.20;16.37;;;16.90;99.90;;;;;;4923365;28;20055;-48
2023/06/23 01:28:52;;;;;;;16.80;15.00;;;16.90;99.90;;;;;;4953300;28;20039;-48
2023/06/23 01:31:43;;;;;;;19.95;16.42;;;16.80;99.90;;;;;;4953033;28;20050;-50
2023/06/23 01:34:12;;;;;;;19.65;16.13;;;16.80;99.90;;;;;;4943979;28;20493;-47
2023/06/23 01:36:51;;;;;;;21.45;18.13;;;16.90;99.90;;;;;;4952732;28;20387;-47
2023/06/23 01:39:20;;;;;;;22.77;17.85;;;16.90;99.90;;;;;;4968940;28;20173;-47
2023/06/23 01:42:01;;;;;;;20.17;17.85;;;16.90;99.90;;;;;;4965645;28;20141;-48
2023/06/23 01:44:29;;;;;;;21.67;18.63;;;16.80;99.90;;;;;;4935743;28;20054;-47
2023/06/23 01:46:59;;;;;;;20.45;17.98;;;16.80;99.90;;;;;;4952321;28;20047;-51
2023/06/23 01:49:30;;;;;;;22.15;19.25;;;16.80;99.90;;;;;;4935527;28;20047;-50
2023/06/23 01:51:57;;;;;;;22.88;19.55;;;16.80;99.90;;;;;;4952972;28;20807;-50
2023/06/23 01:54:25;;;;;;;22.50;19.90;;;16.80;99.90;;;;;;4952767;28;20117;-46
2023/06/23 01:56:52;;;;;;;22.55;19.75;;;16.60;99.90;;;;;;4952894;28;20046;-49
2023/06/23 01:59:20;;;;;;;26.98;20.80;;;16.70;99.90;;;;;;4952560;28;20043;-50
2023/06/23 02:01:47;;;;;;;22.10;19.75;;;16.80;99.90;;;;;;4952897;28;20122;-51
2023/06/23 02:04:15;;;;;;;23.48;20.85;;;16.70;99.90;;;;;;4961982;28;20034;-47
2023/06/23 02:06:44;;;;;;;25.35;21.90;;;16.60;99.90;;;;;;4972107;28;20090;-48
2023/06/23 02:09:15;;;;;;;26.95;22.27;;;16.60;99.90;;;;;;4971569;28;20458;-48
2023/06/23 02:11:42;;;;;;;26.00;22.10;;;16.50;99.90;;;;;;4971771;28;20438;-48
2023/06/23 02:14:10;;;;;;;28.85;22.73;;;16.50;99.90;;;;;;4971876;28;20050;-48
2023/06/23 02:16:37;;;;;;;25.70;22.98;;;16.60;99.90;;;;;;4971799;28;20101;-48
2023/06/23 02:19:04;;;;;;;27.45;23.55;;;16.50;99.90;;;;;;4971943;28;20058;-50
2023/06/23 02:21:33;;;;;;;26.15;23.38;;;16.60;99.90;;;;;;4972022;28;20062;-50
2023/06/23 02:24:03;;;;;;;29.10;24.08;;;16.50;99.90;;;;;;4971756;28;20039;-46
2023/06/23 02:26:30;;;;;;;26.65;23.92;;;16.50;99.90;;;;;;4954618;28;20379;-48
2023/06/23 02:28:56;;;;;;;27.85;24.60;;;16.50;99.90;;;;;;4952633;28;20045;-47
2023/06/23 02:31:25;;;;;;;27.35;24.45;;;16.40;99.90;;;;;;4955599;28;20034;-47
2023/06/23 02:33:52;;;;;;;29.42;25.77;;;16.50;99.90;;;;;;4971578;28;20074;-46
2023/06/23 02:36:20;;;;;;;31.92;26.70;;;16.40;99.90;;;;;;4936081;28;20047;-48
2023/06/23 02:38:48;;;;;;;29.58;26.48;;;16.30;99.90;;;;;;4971145;28;20093;-47
2023/06/23 02:41:17;;;;;;;32.15;26.85;;;16.40;99.90;;;;;;4971719;28;20034;-46
2023/06/23 02:43:54;;;;;;;31.33;27.23;;;16.30;99.90;;;;;;4964768;28;20174;-45
2023/06/23 02:46:24;;;;;;;31.98;27.95;;;16.40;99.90;;;;;;4962628;28;20160;-47
2023/06/23 02:48:53;;;;;;;31.60;28.20;;;16.30;99.90;;;;;;4961797;28;20043;-49
2023/06/23 02:51:21;;;;;;;31.25;27.98;;;16.30;99.90;;;;;;4952499;28;20162;-48
2023/06/23 02:53:55;;;;;;;33.78;29.25;;;16.20;99.90;;;;;;4952474;28;20106;-46
2023/06/23 02:56:25;;;;;;;;;;;16.20;99.90;;;;;;4952668;28;20509;-50
2023/06/23 02:58:56;;;;;;;35.67;31.60;;;16.20;99.90;;;;;;4936881;28;19989;-45
2023/06/23 03:01:22;;;;;;;37.75;32.53;;;16.20;99.90;;;;;;4955831;28;20122;-50
2023/06/23 03:03:49;;;;;;;36.25;32.38;;;16.20;99.90;;;;;;4955412;28;20102;-49
2023/06/23 03:06:22;;;;;;;35.97;31.15;;;16.10;99.90;;;;;;4971976;28;20498;-49
2023/06/23 03:08:49;;;;;;;35.78;32.08;;;16.20;99.90;;;;;;4974592;28;20097;-50
2023/06/23 03:11:16;;;;;;;35.95;32.13;;;16.20;99.90;;;;;;4974652;28;20038;-48
2023/06/23 03:13:43;;;;;;;37.33;33.35;;;16.10;99.90;;;;;;4975149;28;20042;-49
2023/06/23 03:16:18;;;;;;;37.95;32.45;;;16.10;99.90;;;;;;4955694;28;20062;-50
2023/06/23 03:19:11;;;;;;;40.42;34.70;;;16.00;99.90;;;;;;4954978;28;20046;-47
2023/06/23 03:21:38;;;;;;;39.80;35.17;;;16.00;99.90;;;;;;4955354;28;20495;-49
2023/06/23 03:24:08;;;;;;;42.30;37.75;;;16.10;99.90;;;;;;4955460;28;20047;-49
2023/06/23 03:26:39;;;;;;;40.50;36.13;;;16.00;99.90;;;;;;4955176;28;20047;-47
2023/06/23 03:29:08;;;;;;;43.42;38.85;;;16.00;99.90;;;;;;4955316;28;20517;-51
2023/06/23 03:31:40;;;;;;;43.28;38.75;;;16.00;99.90;;;;;;4955510;28;20096;-47
2023/06/23 03:34:06;;;;;;;45.47;40.67;;;16.00;99.90;;;;;;4955332;28;20042;-49
2023/06/23 03:36:35;;;;;;;44.83;40.05;;;15.90;99.90;;;;;;4937667;28;20068;-48
2023/06/23 03:39:29;;;;;;;50.83;45.42;;;15.90;99.90;;;;;;4954914;28;20079;-46
2023/06/23 03:41:56;;;;;;;50.22;44.90;;;15.90;99.90;;;;;;4954162;28;20057;-46
2023/06/23 03:44:33;;;;;;;51.05;30.95;;;16.00;99.90;;;;;;4974277;28;21161;-48
2023/06/23 03:47:20;;;;;;;55.97;49.67;;;15.90;99.90;;;;;;4964608;28;20110;-47
2023/06/23 03:49:51;;;;;;;58.47;51.22;;;15.80;99.90;;;;;;4954437;28;20051;-49
2023/06/23 03:52:18;;;;;;;58.47;52.08;;;15.90;99.90;;;;;;4955084;28;20070;-50
2023/06/23 03:54:47;;;;;;;62.03;52.97;;;15.90;99.90;;;;;;4955115;28;20035;-46
2023/06/23 03:57:17;;;;;;;60.20;53.53;;;16.00;99.90;;;;;;4954836;28;20031;-49
2023/06/23 03:59:45;;;;;;;65.25;55.95;;;15.80;99.90;;;;;;4968184;28;20046;-47
2023/06/23 04:02:15;;;;;;;65.45;55.92;;;16.00;99.90;;;;;;4954448;28;20109;-49
2023/06/23 04:04:44;;;;;;;64.30;56.92;;;15.90;99.90;;;;;;4954423;28;20121;-50
2023/06/23 04:07:11;;;;;;;65.72;57.80;;;16.00;99.90;;;;;;4954606;28;20507;-49
2023/06/23 04:09:43;;;;;;;64.40;55.22;;;15.90;99.90;;;;;;4936459;28;20039;-47
2023/06/23 04:12:13;;;;;;;65.20;57.15;;;15.90;99.90;;;;;;4954389;28;20402;-45
2023/06/23 04:14:41;;;;;;;64.85;57.40;;;16.00;99.90;;;;;;4954393;28;20042;-49
2023/06/23 04:17:10;;;;;;;65.55;58.38;;;16.00;99.90;;;;;;4937097;28;20493;-48
2023/06/23 04:19:41;;;;;;;64.35;57.45;;;16.10;99.90;;;;;;4954613;28;20139;-49
2023/06/23 04:22:08;;;;;;;70.75;59.08;;;16.00;99.90;;;;;;4954265;28;20035;-50
2023/06/23 04:24:37;;;;;;;70.93;59.97;;;16.10;99.90;;;;;;4954233;28;20513;-49
2023/06/23 04:27:05;;;;;;;69.78;58.90;;;16.00;99.90;;;;;;4954005;28;20082;-46
2023/06/23 04:29:33;;;;;;;71.47;59.38;;;16.00;99.90;;;;;;4954110;28;20051;-48
2023/06/23 04:32:00;;;;;;;73.43;61.10;;;15.90;99.90;;;;;;4954435;28;20043;-46
2023/06/23 04:34:25;;;;;;;77.40;60.20;;;16.00;99.90;;;;;;4954081;28;20043;-47
2023/06/23 04:37:23;;;;;;;72.47;62.17;;;16.10;99.90;;;;;;4936195;28;20126;-50
2023/06/23 04:39:57;;;;;;;77.47;64.68;;;16.10;99.90;;;;;;4949462;28;20062;-46
2023/06/23 04:42:50;;;;;;;70.32;62.63;;;16.00;99.90;;;;;;4953538;28;20052;-48
2023/06/23 04:45:21;;;;;;;72.07;62.83;;;16.20;99.90;;;;;;4954135;28;20043;-49
2023/06/23 04:47:59;;;;;;;70.68;61.08;;;16.10;99.90;;;;;;4953741;28;20498;-49
2023/06/23 04:50:28;;;;;;;69.30;37.70;;;16.20;99.90;;;;;;4954003;28;20550;-47
2023/06/23 04:53:05;;;;;;;69.75;57.78;;;16.30;99.90;;;;;;4953949;28;20043;-48
2023/06/23 04:55:34;;;;;;;67.82;55.95;;;16.20;99.90;;;;;;4954292;28;20039;-47
2023/06/23 04:58:03;;;;;;;70.82;43.60;;;16.40;99.90;;;;;;4953362;28;20035;-48
2023/06/23 05:00:31;;;;;;;62.65;52.65;;;16.20;99.90;;;;;;4953590;28;20047;-50
2023/06/23 05:02:58;;;;;;;62.92;54.80;;;16.30;99.90;;;;;;4920379;28;20046;-50
2023/06/23 05:05:27;;;;;;;66.80;53.25;;;16.40;99.90;;;;;;4953197;28;20047;-50
2023/06/23 05:07:56;;;;;;;59.03;51.20;;;16.30;99.90;;;;;;4953736;28;20483;-50
2023/06/23 05:10:24;;;;;;;57.97;50.90;;;16.40;99.90;;;;;;4969292;28;20402;-47
2023/06/23 05:12:53;;;;;;;58.40;48.45;;;16.40;99.90;;;;;;4922272;28;20047;-51
2023/06/23 05:15:20;;;;;;;56.97;48.47;;;16.40;99.90;;;;;;4972483;28;20038;-52
2023/06/23 05:17:48;;;;;;;55.90;47.15;;;16.40;99.90;;;;;;4956272;28;20054;-52
2023/06/23 05:20:19;;;;;;;55.22;46.63;;;16.50;99.90;;;;;;4962690;28;20079;-46
2023/06/23 05:22:47;;;;;;;51.58;44.50;;;16.40;99.90;;;;;;4953325;28;20043;-49
2023/06/23 05:25:14;;;;;;;50.40;44.72;;;16.40;99.90;;;;;;4953450;28;20553;-48
2023/06/23 05:27:44;;;;;;;51.10;43.60;;;16.60;99.90;;;;;;4952935;28;20094;-51
2023/06/23 05:30:17;;;;;;;51.30;42.67;;;16.40;99.90;;;;;;4971613;28;20035;-48
2023/06/23 05:32:47;;;;;;;53.85;43.28;;;16.50;99.90;;;;;;4956741;28;20118;-48
2023/06/23 05:35:13;;;;;;;49.30;30.77;;;16.70;99.90;;;;;;4953170;28;20109;-51
2023/06/23 05:37:42;;;;;;;45.63;39.40;;;16.60;99.90;;;;;;4952831;28;20094;-49
2023/06/23 05:40:12;;;;;;;48.85;40.72;;;16.60;99.90;;;;;;4952342;28;20043;-50
2023/06/23 05:42:38;;;;;;;47.55;39.53;;;16.70;99.90;;;;;;4952834;28;20094;-46
2023/06/23 05:45:04;;;;;;;51.58;40.47;;;16.70;99.90;;;;;;4963474;28;20066;-51
2023/06/23 05:47:59;;;;;;;46.10;36.47;;;17.00;99.90;;;;;;4954131;28;20043;-51
2023/06/23 05:50:32;;;;;;;43.65;35.38;;;16.90;99.90;;;;;;4971969;28;20043;-48
2023/06/23 05:53:08;;;;;;;39.30;34.30;;;17.00;99.90;;;;;;4935683;28;20043;-49
2023/06/23 05:55:43;;;;;;;39.08;30.80;;;17.20;99.90;;;;;;4953083;28;20043;-49
2023/06/23 05:58:12;;;;;;;37.58;30.23;;;17.30;99.90;;;;;;4952265;28;20082;-49
2023/06/23 06:00:45;;;;;;;34.92;28.10;;;17.30;99.90;;;;;;4952716;28;20109;-47
2023/06/23 06:03:14;;;;;;;30.98;26.83;;;17.30;99.90;;;;;;4952504;28;20047;-49
2023/06/23 06:05:46;;;;;;;33.17;27.45;;;17.40;99.90;;;;;;4952878;28;20032;-47
2023/06/23 06:08:12;;;;;;;31.38;25.15;;;17.60;99.90;;;;;;4935393;28;20041;-52
2023/06/23 06:10:39;;;;;;;29.88;23.25;;;17.50;99.90;;;;;;4935196;28;20127;-47
2023/06/23 06:13:05;;;;;;;30.67;23.52;;;17.80;99.90;;;;;;4952543;28;20047;-50
2023/06/23 06:15:33;;;;;;;26.30;22.45;;;17.70;99.90;;;;;;4952440;28;20046;-50
2023/06/23 06:18:04;;;;;;;24.75;20.67;;;17.90;99.90;;;;;;4935050;28;20043;-48
2023/06/23 06:20:31;;;;;;;22.05;19.73;;;18.00;99.90;;;;;;4952546;28;20146;-52
2023/06/23 06:22:57;;;;;;;24.90;20.30;;;17.90;99.90;;;;;;4965398;28;20160;-49
2023/06/23 06:25:25;;;;;;;25.80;19.60;;;18.00;99.90;;;;;;4952907;28;20062;-51
2023/06/23 06:27:52;;;;;;;23.05;18.60;;;18.00;99.90;;;;;;4952400;28;20047;-48
2023/06/23 06:30:19;;;;;;;24.13;18.67;;;18.10;99.90;;;;;;4952085;28;20157;-49
2023/06/23 06:32:46;;;;;;;19.70;16.75;;;18.20;99.90;;;;;;4952922;28;20487;-48
2023/06/23 06:35:15;;;;;;;20.83;16.05;;;18.20;99.90;;;;;;4956900;28;20118;-49
2023/06/23 06:37:47;;;;;;;18.70;14.85;;;18.30;99.90;;;;;;4971154;28;20149;-48
2023/06/23 06:40:17;;;;;;;18.45;14.50;;;18.40;99.90;;;;;;4955822;28;20035;-50
2023/06/23 06:42:43;;;;;;;17.48;15.20;;;18.50;99.90;;;;;;4955615;28;20051;-48
2023/06/23 06:45:09;;;;;;;17.30;14.23;;;18.40;99.90;;;;;;4964763;28;20114;-51
2023/06/23 06:47:40;;;;;;;16.75;13.60;;;18.50;99.90;;;;;;4974919;28;20031;-51
2023/06/23 06:50:08;;;;;;;17.80;14.07;;;18.50;99.90;;;;;;4975130;28;20043;-51
2023/06/23 06:52:37;;;;;;;16.15;13.30;;;18.60;99.90;;;;;;4968745;28;20058;-49
2023/06/23 06:55:03;;;;;;;15.80;12.85;;;18.60;99.90;;;;;;4955947;28;20050;-53
2023/06/23 06:57:33;;;;;;;33.03;14.05;;;18.70;99.90;;;;;;4938320;28;20118;-48
2023/06/23 06:59:59;;;;;;;46.25;15.20;;;18.70;99.90;;;;;;4956008;28;20067;-47
2023/06/23 07:02:26;;;;;;;30.00;13.55;;;18.70;99.90;;;;;;4954174;28;20074;-49
2023/06/23 07:04:52;;;;;;;15.38;11.27;;;18.80;99.90;;;;;;4955956;28;20793;-46
2023/06/23 07:07:18;;;;;;;11.68;9.50;;;18.80;99.90;;;;;;4955655;28;20049;-48
2023/06/23 07:09:43;;;;;;;13.27;9.40;;;18.80;99.90;;;;;;4955387;28;20563;-49
2023/06/23 07:12:09;;;;;;;12.98;10.13;;;18.90;99.90;;;;;;4955505;28;20406;-52
2023/06/23 07:14:36;;;;;;;83.25;19.17;;;19.00;99.90;;;;;;4955437;28;20087;-48
2023/06/23 07:17:01;;;;;;;21.48;11.55;;;19.00;99.90;;;;;;4968766;28;20047;-51
2023/06/23 07:19:27;;;;;;;12.00;9.70;;;19.10;99.90;;;;;;4955315;28;20062;-49
2023/06/23 07:21:52;;;;;;;14.15;9.40;;;19.20;99.90;;;;;;4955114;28;20045;-50
2023/06/23 07:24:18;;;;;;;12.43;10.23;;;19.20;99.90;;;;;;4955187;28;20130;-50
2023/06/23 07:26:44;;;;;;;11.82;8.70;;;19.30;99.90;;;;;;4937856;28;20046;-49
2023/06/23 07:29:09;;;;;;;10.80;8.75;;;19.40;99.90;;;;;;4955478;28;20036;-51
2023/06/23 07:31:37;;;;;;;14.70;9.23;;;19.40;99.90;;;;;;4955215;28;20139;-50
2023/06/23 07:34:03;;;;;;;12.73;8.93;;;19.50;99.90;;;;;;4954985;28;20091;-51
2023/06/23 07:36:28;;;;;;;10.73;7.47;;;19.60;99.90;;;;;;4955224;28;20043;-50
2023/06/23 07:38:54;;;;;;;9.68;7.80;;;19.70;99.90;;;;;;4954898;28;20505;-48
2023/06/23 07:41:20;;;;;;;8.38;6.78;;;19.70;99.90;;;;;;4969668;28;20101;-47
2023/06/23 07:43:45;;;;;;;9.07;6.10;;;19.80;99.90;;;;;;4973726;28;20054;-49
2023/06/23 07:46:11;;;;;;;9.02;6.10;;;19.80;99.90;;;;;;4972985;28;20707;-50
2023/06/23 07:48:37;;;;;;;9.57;6.45;;;19.90;99.90;;;;;;4954807;28;20035;-50
2023/06/23 07:51:03;;;;;;;9.88;6.60;;;19.90;99.90;;;;;;4937602;28;20570;-48
2023/06/23 07:53:29;;;;;;;9.98;6.82;;;19.90;99.90;;;;;;4954903;28;20035;-50
2023/06/23 07:55:54;;;;;;;9.15;6.90;;;20.00;99.90;;;;;;4954528;28;20376;-50
2023/06/23 07:58:20;;;;;;;9.82;7.03;;;20.00;99.90;;;;;;4970035;28;20047;-47
2023/06/23 08:00:46;;;;;;;10.13;7.65;;;20.10;99.90;;;;;;4963998;28;20055;-49
2023/06/23 08:03:12;;;;;;;10.68;7.55;;;20.20;99.90;;;;;;4937368;28;20123;-49
2023/06/23 08:05:38;;;;;;;10.57;7.60;;;20.30;99.90;;;;;;4954789;28;20401;-50
2023/06/23 08:08:05;;;;;;;10.35;5.47;;;20.40;99.90;;;;;;4955025;28;20122;-52
2023/06/23 08:10:30;;;;;;;9.07;6.00;;;20.40;99.90;;;;;;4953819;28;20416;-46
2023/06/23 08:12:56;;;;;;;8.88;6.30;;;20.40;99.90;;;;;;4954709;28;20046;-47
2023/06/23 08:15:22;;;;;;;11.00;6.85;;;20.50;99.90;;;;;;4937138;28;20086;-48
2023/06/23 08:17:48;;;;;;;10.60;7.05;;;20.60;99.90;;;;;;4954156;28;20130;-49
2023/06/23 08:20:14;;;;;;;8.35;6.07;;;20.60;99.90;;;;;;4954449;28;20394;-50
2023/06/23 08:22:40;;;;;;;8.93;5.75;;;20.60;99.90;;;;;;4953921;28;20134;-48
2023/06/23 08:25:07;;;;;;;8.05;5.80;;;20.70;99.90;;;;;;4954279;28;20039;-48
2023/06/23 08:27:33;;;;;;;9.57;6.38;;;20.70;99.90;;;;;;4953896;28;20047;-48
2023/06/23 08:29:59;;;;;;;8.70;6.07;;;20.80;99.90;;;;;;4954347;28;20119;-48
2023/06/23 08:32:24;;;;;;;9.35;6.43;;;20.80;99.90;;;;;;4954125;28;20145;-46
2023/06/23 08:34:50;;;;;;;11.02;7.10;;;20.80;99.90;;;;;;4954613;28;20041;-49
2023/06/23 08:37:16;;;;;;;8.80;6.50;;;20.90;99.90;;;;;;4953816;28;20344;-50
2023/06/23 08:39:41;;;;;;;7.28;5.25;;;20.90;99.90;;;;;;4953261;28;20130;-47
2023/06/23 08:42:07;;;;;;;43.22;9.38;;;20.90;99.90;;;;;;4953731;28;20047;-48
2023/06/23 08:44:37;;;;;;;8.15;5.38;;;21.00;99.90;;;;;;4972837;28;20054;-49
2023/06/23 08:47:04;;;;;;;7.40;4.55;;;21.10;99.90;;;;;;4961166;28;20050;-53
2023/06/23 08:49:38;;;;;;;5.88;4.43;;;21.20;99.90;;;;;;4936984;28;20500;-50
2023/06/23 08:52:04;;;;;;;7.85;4.30;;;21.20;99.90;;;;;;4957823;28;20043;-51
2023/06/23 08:54:30;;;;;;;7.05;4.70;;;21.20;99.90;;;;;;4936339;28;20050;-50
2023/06/23 08:56:57;;;;;;;6.53;5.00;;;21.40;99.90;;;;;;4961273;28;20046;-49
2023/06/23 08:59:23;;;;;;;7.55;4.13;;;21.40;99.90;;;;;;4962840;28;20043;-48
2023/06/23 09:01:49;;;;;;;6.80;3.88;;;21.50;99.90;;;;;;4953626;28;20050;-51
2023/06/23 09:04:15;;;;;;;39.63;7.82;;;21.50;99.90;;;;;;4953397;28;20168;-50
2023/06/23 09:06:40;;;;;;;6.28;3.70;;;21.60;99.90;;;;;;4958943;28;20515;-48
2023/06/23 09:09:06;;;;;;;5.75;3.58;;;21.70;99.90;;;;;;4972285;28;20474;-50
2023/06/23 09:11:32;;;;;;;5.43;3.00;;;21.80;99.90;;;;;;4937399;28;20389;-52
2023/06/23 09:14:00;;;;;;;4.85;2.85;;;21.90;99.90;;;;;;4953376;28;20035;-51
2023/06/23 09:16:27;;;;;;;6.05;3.20;;;22.00;99.90;;;;;;4953451;28;20384;-51
2023/06/23 09:18:53;;;;;;;4.30;2.90;;;22.20;99.90;;;;;;4936136;28;20058;-50
2023/06/23 09:21:20;;;;;;;6.78;3.97;;;22.40;99.90;;;;;;4953088;28;20043;-48
2023/06/23 09:24:02;;;;;;;6.00;4.40;;;22.50;99.90;;;;;;4955525;28;20055;-48
2023/06/23 09:26:28;;;;;;;6.40;4.43;;;22.70;99.90;;;;;;4972376;28;20054;-49
2023/06/23 09:29:20;;;;;;;5.97;4.00;;;22.80;99.90;;;;;;4953575;28;20459;-50
2023/06/23 09:31:50;;;;;;;8.35;4.45;;;23.00;99.90;;;;;;4953014;28;20490;-50
2023/06/23 09:34:24;;;;;;;8.38;4.20;;;23.20;99.90;;;;;;4972451;28;20054;-47
2023/06/23 09:36:52;;;;;;;;;;;23.30;99.90;;;;;;4972184;28;20035;-47
2023/06/23 09:39:18;;;;;;;7.80;3.42;;;23.40;99.90;;;;;;4952608;28;20001;-47
2023/06/23 09:41:54;;;;;;;5.95;3.70;;;23.40;99.90;;;;;;4953039;28;20066;-46
2023/06/23 09:44:20;;;;;;;5.80;3.42;;;23.50;99.90;;;;;;4966334;28;20038;-51
2023/06/23 09:46:46;;;;;;;5.38;3.70;;;23.50;99.90;;;;;;4956076;28;20057;-48
2023/06/23 09:49:12;;;;;;;6.15;3.67;;;23.60;99.90;;;;;;4972349;28;20054;-53
2023/06/23 09:51:46;;;;;;;7.43;3.35;;;23.70;99.90;;;;;;4971944;28;20118;-51
2023/06/23 09:54:12;;;;;;;;;;;23.70;99.90;;;;;;4972528;28;20130;-49
2023/06/23 09:56:37;;;;;;;6.47;3.78;;;23.70;99.90;;;;;;4971850;28;20408;-47
2023/06/23 09:59:03;;;;;;;6.65;3.75;;;23.50;99.90;;;;;;4972246;28;20054;-52
2023/06/23 10:01:37;;;;;;;6.68;4.80;;;23.50;99.90;;;;;;4971773;28;20055;-51
2023/06/23 10:04:03;;;;;;;7.90;5.40;;;23.70;99.90;;;;;;4935389;28;20039;-50
2023/06/23 10:06:32;;;;;;;8.52;4.88;;;23.80;99.90;;;;;;4919544;28;20078;-49
2023/06/23 10:09:05;;;;;;;7.00;4.43;;;23.80;99.90;;;;;;4951690;28;20042;-47
2023/06/23 10:11:40;;;;;;;8.95;4.43;;;23.90;99.90;;;;;;4935390;28;20510;-50
2023/06/23 10:14:10;;;;;;;7.88;4.78;;;24.00;99.90;;;;;;4952810;28;20085;-48
2023/06/23 10:16:41;;;;;;;6.75;4.47;;;24.10;99.90;;;;;;4971389;28;20047;-50
2023/06/23 10:19:07;;;;;;;6.20;3.70;;;24.10;99.90;;;;;;4962701;28;20039;-51
2023/06/23 10:21:34;;;;;;;6.78;3.70;;;24.00;99.90;;;;;;4955747;28;20113;-50
2023/06/23 10:24:08;;;;;;;5.15;3.50;;;24.00;99.90;;;;;;4954249;28;20051;-50
2023/06/23 10:26:36;;;;;;;6.00;3.70;;;24.00;99.90;;;;;;4952402;28;20497;-47
2023/06/23 10:29:13;;;;;;;6.30;3.15;;;24.10;99.90;;;;;;4960544;28;20371;-51
2023/06/23 10:31:41;;;;;;;7.25;3.08;;;24.30;99.90;;;;;;4964337;28;20036;-49
2023/06/23 10:34:12;;;;;;;4.97;2.95;;;24.30;99.90;;;;;;4952726;28;20078;-50
2023/06/23 10:36:41;;;;;;;7.68;3.78;;;24.40;99.90;;;;;;4935469;28;20094;-48
2023/06/23 10:39:10;;;;;;;4.93;2.80;;;24.30;99.90;;;;;;4957451;28;20143;-51
2023/06/23 10:41:38;;;;;;;5.00;2.53;;;24.40;99.90;;;;;;4935795;28;20079;-52
2023/06/23 10:44:04;;;;;;;5.65;2.42;;;24.40;99.90;;;;;;4952410;28;20051;-50
2023/06/23 10:46:30;;;;;;;6.28;2.88;;;24.50;99.90;;;;;;4952323;28;20039;-50
2023/06/23 10:48:56;;;;;;;4.72;2.30;;;24.60;99.90;;;;;;4934848;28;20054;-54
2023/06/23 10:51:24;;;;;;;5.75;2.78;;;24.60;99.90;;;;;;4961857;28;20070;-47
2023/06/23 10:54:01;;;;;;;4.40;2.38;;;24.70;99.90;;;;;;4952673;28;20093;-49
2023/06/23 10:56:35;;;;;;;5.07;2.40;;;24.70;99.90;;;;;;4951778;28;20047;-48
2023/06/23 10:59:16;;;;;;;;;;;24.70;99.90;;;;;;4952966;28;20110;-49
2023/06/23 11:02:14;;;;;;;5.03;3.03;;;24.80;99.90;;;;;;4963048;28;19918;-51
2023/06/23 11:04:51;;;;;;;5.68;3.00;;;24.90;99.90;;;;;;4940774;28;20071;-49
2023/06/23 11:07:17;;;;;;;6.70;3.08;;;24.90;99.90;;;;;;4935022;28;20039;-50
2023/06/23 11:09:57;;;;;;;4.93;2.85;;;24.90;99.90;;;;;;4955874;28;20034;-50
2023/06/23 11:12:39;;;;;;;5.57;3.10;;;24.90;99.90;;;;;;4951577;28;20110;-50
2023/06/23 11:15:12;;;;;;;5.40;3.20;;;25.10;99.90;;;;;;4952137;28;20047;-48
2023/06/23 11:17:46;;;;;;;6.63;4.10;;;25.10;99.90;;;;;;4951747;28;20098;-50
2023/06/23 11:20:24;;;;;;;5.90;3.40;;;25.20;99.90;;;;;;4954613;28;20054;-52
2023/06/23 11:23:11;;;;;;;5.63;3.30;;;25.20;99.90;;;;;;4939431;28;20039;-51
2023/06/23 11:25:50;;;;;;;7.25;3.70;;;25.30;99.90;;;;;;4974617;28;20038;-51
2023/06/23 11:28:29;;;;;;;6.30;3.78;;;25.40;99.90;;;;;;4965223;28;20035;-49
2023/06/23 11:31:11;;;;;;;6.10;3.72;;;25.50;99.90;;;;;;4967666;28;20073;-52
2023/06/23 11:33:41;;;;;;;5.70;3.75;;;25.60;99.90;;;;;;4955077;28;20045;-52
2023/06/23 11:36:16;;;;;;;11.13;3.67;;;25.60;99.90;;;;;;4955004;28;20042;-51
2023/06/23 11:38:43;;;;;;;7.72;3.42;;;25.60;99.90;;;;;;4955298;28;20094;-48
2023/06/23 11:41:12;;;;;;;6.53;3.20;;;25.70;99.90;;;;;;4937308;28;20041;-52
2023/06/23 11:43:38;;;;;;;6.40;3.65;;;25.80;99.90;;;;;;4965491;28;20042;-47
2023/06/23 11:46:14;;;;;;;5.68;3.30;;;25.80;99.90;;;;;;4974169;28;20034;-49
2023/06/23 11:48:41;;;;;;;7.85;3.60;;;25.90;99.90;;;;;;4974518;28;20027;-49
2023/06/23 11:51:17;;;;;;;7.13;3.30;;;26.00;99.90;;;;;;4974044;28;20042;-48
2023/06/23 11:53:45;;;;;;;4.63;3.00;;;26.00;99.90;;;;;;4974127;28;20039;-51
2023/06/23 11:56:15;;;;;;;6.60;3.03;;;26.10;99.90;;;;;;4974077;28;20534;-49
2023/06/23 11:58:46;;;;;;;6.05;2.45;;;26.20;99.90;;;;;;4973953;28;20046;-46
2023/06/23 12:01:12;;;;;;;4.45;2.42;;;26.30;99.50;;;;;;4973934;28;20475;-48
2023/06/23 12:03:38;;;;;;;24.02;4.75;;;26.40;98.10;;;;;;4956198;28;20062;-49
2023/06/23 12:06:04;;;;;;;5.32;2.75;;;26.40;97.70;;;;;;4937077;28;20046;-51
2023/06/23 12:08:30;;;;;;;4.43;2.45;;;26.50;97.80;;;;;;4954842;28;20047;-46
2023/06/23 12:10:56;;;;;;;3.85;2.28;;;26.60;97.60;;;;;;4954251;28;20043;-49
2023/06/23 12:13:21;;;;;;;7.93;2.15;;;26.80;96.70;;;;;;4954838;28;20118;-50
2023/06/23 12:15:47;;;;;;;5.75;2.58;;;26.80;96.50;;;;;;4954359;28;20043;-49
2023/06/23 12:18:14;;;;;;;4.25;2.22;;;26.80;96.00;;;;;;4954171;28;20086;-48
2023/06/23 12:20:47;;;;;;;5.72;2.33;;;26.90;96.50;;;;;;4954047;28;20164;-52
2023/06/23 12:23:14;;;;;;;5.82;2.00;;;27.00;96.00;;;;;;4937038;28;20044;-50
2023/06/23 12:25:44;;;;;;;6.00;2.20;;;27.10;95.70;;;;;;4954126;28;20049;-48
2023/06/23 12:28:17;;;;;;;6.75;2.17;;;27.10;95.20;;;;;;4958368;28;20041;-49
2023/06/23 12:30:44;;;;;;;;;;;27.10;95.50;;;;;;4973316;28;20039;-49
2023/06/23 12:33:21;;;;;;;7.22;2.50;;;27.20;95.50;;;;;;4973306;28;19961;-50
2023/06/23 12:36:07;;;;;;;5.25;2.72;;;27.30;96.30;;;;;;4973279;28;20078;-49
2023/06/23 12:38:37;;;;;;;4.25;2.40;;;27.40;95.70;;;;;;4966874;28;20039;-50
2023/06/23 12:41:27;;;;;;;8.38;2.38;;;27.40;95.60;;;;;;4936620;28;20125;-50
2023/06/23 12:43:54;;;;;;;5.88;2.80;;;27.40;95.70;;;;;;4951487;28;20127;-50
2023/06/23 12:46:25;;;;;;;5.93;2.80;;;27.40;95.80;;;;;;4954037;28;20890;-51
2023/06/23 12:48:53;;;;;;;4.55;2.40;;;27.50;95.70;;;;;;4953646;28;20950;-49